sensor_id;sensor_type;location;lat;lon;timestamp;temperature;humidity
17591;DHT22;8914;50.070;8.226;2024-01-10T00:01:33;0.10;99.90
17591;DHT22;8914;50.070;8.226;2024-01-10T00:04:04;0.10;99.90
17591;DHT22;8914;50.070;8.226;2024-01-10T00:06:34;0.00;99.90
17591;DHT22;8914;50.070;8.226;2024-01-10T00:09:04;0.00;99.90
17591;DHT22;8914;50.070;8.226;2024-01-10T00:11:34;0.00;99.90
17591;DHT22;8914;50.070;8.226;2024-01-10T00:14:06;0.10;99.90
17591;DHT22;8914;50.070;8.226;2024-01-10T00:16:36;0.00;99.90
17591;DHT22;8914;50.070;8.226;2024-01-10T00:19:06;0.20;99.90
17591;DHT22;8914;50.070;8.226;2024-01-10T00:21:35;0.00;99.90
17591;DHT22;8914;50.070;8.226;2024-01-10T00:24:05;0.00;99.90
17591;DHT22;8914;50.070;8.226;2024-01-10T00:26:35;0.00;99.90
17591;DHT22;8914;50.070;8.226;2024-01-10T00:29:07;0.00;99.90
17591;DHT22;8914;50.070;8.226;2024-01-10T00:31:37;0.00;99.90
17591;DHT22;8914;50.070;8.226;2024-01-10T00:34:06;0.00;99.90
17591;DHT22;8914;50.070;8.226;2024-01-10T00:36:36;0.00;99.90
17591;DHT22;8914;50.070;8.226;2024-01-10T00:39:05;0.00;99.90
17591;DHT22;8914;50.070;8.226;2024-01-10T00:41:35;0.00;99.90
17591;DHT22;8914;50.070;8.226;2024-01-10T00:44:07;0.00;99.90
17591;DHT22;8914;50.070;8.226;2024-01-10T00:46:37;0.00;99.90
17591;DHT22;8914;50.070;8.226;2024-01-10T00:49:07;0.00;99.90
17591;DHT22;8914;50.070;8.226;2024-01-10T00:51:36;0.00;99.90
17591;DHT22;8914;50.070;8.226;2024-01-10T00:54:06;-0.10;99.90
17591;DHT22;8914;50.070;8.226;2024-01-10T00:56:35;-0.10;99.90
17591;DHT22;8914;50.070;8.226;2024-01-10T00:59:08;-0.10;99.90
17591;DHT22;8914;50.070;8.226;2024-01-10T01:01:37;-0.10;99.90
17591;DHT22;8914;50.070;8.226;2024-01-10T01:04:07;0.00;99.90
17591;DHT22;8914;50.070;8.226;2024-01-10T01:06:37;0.00;99.90
17591;DHT22;8914;50.070;8.226;2024-01-10T01:09:06;0.00;99.90
17591;DHT22;8914;50.070;8.226;2024-01-10T01:11:36;0.00;99.90
17591;DHT22;8914;50.070;8.226;2024-01-10T01:14:08;0.00;99.90
17591;DHT22;8914;50.070;8.226;2024-01-10T01:16:38;0.00;99.90
17591;DHT22;8914;50.070;8.226;2024-01-10T01:19:07;0.00;99.90
17591;DHT22;8914;50.070;8.226;2024-01-10T01:21:37;-0.10;99.90
17591;DHT22;8914;50.070;8.226;2024-01-10T01:24:07;-0.10;99.90
17591;DHT22;8914;50.070;8.226;2024-01-10T01:26:36;-0.10;99.90
17591;DHT22;8914;50.070;8.226;2024-01-10T01:29:08;-0.10;99.90
17591;DHT22;8914;50.070;8.226;2024-01-10T01:31:38;-0.10;99.90
17591;DHT22;8914;50.070;8.226;2024-01-10T01:34:08;-0.10;99.90
17591;DHT22;8914;50.070;8.226;2024-01-10T01:36:38;-0.20;99.90
17591;DHT22;8914;50.070;8.226;2024-01-10T01:39:07;-0.20;99.90
17591;DHT22;8914;50.070;8.226;2024-01-10T01:41:37;-0.10;99.90
17591;DHT22;8914;50.070;8.226;2024-01-10T01:44:09;-0.10;99.90
17591;DHT22;8914;50.070;8.226;2024-01-10T01:46:39;-0.10;99.90
17591;DHT22;8914;50.070;8.226;2024-01-10T01:49:09;-0.20;99.90
17591;DHT22;8914;50.070;8.226;2024-01-10T01:51:39;-0.20;99.90
17591;DHT22;8914;50.070;8.226;2024-01-10T01:54:09;-0.20;99.90
17591;DHT22;8914;50.070;8.226;2024-01-10T01:56:40;-0.20;99.90
17591;DHT22;8914;50.070;8.226;2024-01-10T01:59:14;-0.20;99.90
17591;DHT22;8914;50.070;8.226;2024-01-10T02:01:43;-0.20;99.90
17591;DHT22;8914;50.070;8.226;2024-01-10T02:04:13;-0.10;99.90
17591;DHT22;8914;50.070;8.226;2024-01-10T02:06:43;-0.10;99.90
17591;DHT22;8914;50.070;8.226;2024-01-10T02:09:13;-0.20;99.90
17591;DHT22;8914;50.070;8.226;2024-01-10T02:11:42;-0.10;99.90
17591;DHT22;8914;50.070;8.226;2024-01-10T02:14:15;-0.10;99.90
17591;DHT22;8914;50.070;8.226;2024-01-10T02:16:45;-0.10;99.90
17591;DHT22;8914;50.070;8.226;2024-01-10T02:19:18;-0.10;99.90
17591;DHT22;8914;50.070;8.226;2024-01-10T02:21:48;-0.10;99.90
17591;DHT22;8914;50.070;8.226;2024-01-10T02:24:17;0.00;99.90
17591;DHT22;8914;50.070;8.226;2024-01-10T02:26:50;0.00;99.90
17591;DHT22;8914;50.070;8.226;2024-01-10T02:29:19;0.00;99.90
17591;DHT22;8914;50.070;8.226;2024-01-10T02:31:50;0.00;99.90
17591;DHT22;8914;50.070;8.226;2024-01-10T02:34:20;0.00;99.90
17591;DHT22;8914;50.070;8.226;2024-01-10T02:36:50;0.00;99.90
17591;DHT22;8914;50.070;8.226;2024-01-10T02:39:19;-0.80;99.90
17591;DHT22;8914;50.070;8.226;2024-01-10T02:41:52;0.00;99.90
17591;DHT22;8914;50.070;8.226;2024-01-10T02:44:21;0.00;99.90
17591;DHT22;8914;50.070;8.226;2024-01-10T02:46:51;-0.10;99.90
17591;DHT22;8914;50.070;8.226;2024-01-10T02:49:21;-0.10;99.90
17591;DHT22;8914;50.070;8.226;2024-01-10T02:51:51;-0.10;99.90
17591;DHT22;8914;50.070;8.226;2024-01-10T02:54:20;-0.10;99.90
17591;DHT22;8914;50.070;8.226;2024-01-10T02:56:52;-0.10;99.90
17591;DHT22;8914;50.070;8.226;2024-01-10T02:59:22;-0.20;99.90
17591;DHT22;8914;50.070;8.226;2024-01-10T03:01:52;-0.20;99.90
17591;DHT22;8914;50.070;8.226;2024-01-10T03:04:21;-0.20;99.90
17591;DHT22;8914;50.070;8.226;2024-01-10T03:06:51;-0.20;99.90
17591;DHT22;8914;50.070;8.226;2024-01-10T03:09:21;-0.20;99.90
17591;DHT22;8914;50.070;8.226;2024-01-10T03:11:53;-0.20;99.90
17591;DHT22;8914;50.070;8.226;2024-01-10T03:14:23;-0.30;99.90
17591;DHT22;8914;50.070;8.226;2024-01-10T03:16:53;-0.30;99.90
17591;DHT22;8914;50.070;8.226;2024-01-10T03:19:22;-0.40;99.90
17591;DHT22;8914;50.070;8.226;2024-01-10T03:21:52;-0.40;99.90
17591;DHT22;8914;50.070;8.226;2024-01-10T03:24:21;-0.40;99.90
17591;DHT22;8914;50.070;8.226;2024-01-10T03:26:56;-0.60;99.90
17591;DHT22;8914;50.070;8.226;2024-01-10T03:29:26;-0.70;99.90
17591;DHT22;8914;50.070;8.226;2024-01-10T03:31:55;-0.70;99.90
17591;DHT22;8914;50.070;8.226;2024-01-10T03:34:25;-0.80;99.90
17591;DHT22;8914;50.070;8.226;2024-01-10T03:36:55;-0.80;99.90
17591;DHT22;8914;50.070;8.226;2024-01-10T03:39:25;-0.80;99.90
17591;DHT22;8914;50.070;8.226;2024-01-10T03:41:57;-0.80;99.90
17591;DHT22;8914;50.070;8.226;2024-01-10T03:44:26;-0.80;99.90
17591;DHT22;8914;50.070;8.226;2024-01-10T03:46:56;-0.90;99.90
17591;DHT22;8914;50.070;8.226;2024-01-10T03:49:26;-0.90;99.90
17591;DHT22;8914;50.070;8.226;2024-01-10T03:51:55;-0.90;99.90
17591;DHT22;8914;50.070;8.226;2024-01-10T03:54:25;-0.90;99.90
17591;DHT22;8914;50.070;8.226;2024-01-10T03:56:57;-1.00;99.90
17591;DHT22;8914;50.070;8.226;2024-01-10T03:59:27;-0.90;99.90
17591;DHT22;8914;50.070;8.226;2024-01-10T04:01:57;-0.90;99.90
17591;DHT22;8914;50.070;8.226;2024-01-10T04:04:27;-1.00;99.90
17591;DHT22;8914;50.070;8.226;2024-01-10T04:06:56;-1.00;99.90
17591;DHT22;8914;50.070;8.226;2024-01-10T04:09:26;-1.20;99.90
17591;DHT22;8914;50.070;8.226;2024-01-10T04:11:58;-1.10;99.90
17591;DHT22;8914;50.070;8.226;2024-01-10T04:14:28;-1.10;99.90
17591;DHT22;8914;50.070;8.226;2024-01-10T04:16:58;-1.10;99.90
17591;DHT22;8914;50.070;8.226;2024-01-10T04:19:28;-1.20;99.90
17591;DHT22;8914;50.070;8.226;2024-01-10T04:21:58;-1.20;99.90
17591;DHT22;8914;50.070;8.226;2024-01-10T04:24:27;-1.20;99.90
17591;DHT22;8914;50.070;8.226;2024-01-10T04:27:00;-1.20;99.90
17591;DHT22;8914;50.070;8.226;2024-01-10T04:29:31;-1.20;99.90
17591;DHT22;8914;50.070;8.226;2024-01-10T04:32:00;-1.20;99.90
17591;DHT22;8914;50.070;8.226;2024-01-10T04:34:30;-1.20;99.90
17591;DHT22;8914;50.070;8.226;2024-01-10T04:37:00;-1.20;99.90
17591;DHT22;8914;50.070;8.226;2024-01-10T04:39:29;-1.20;99.90
17591;DHT22;8914;50.070;8.226;2024-01-10T04:42:02;-1.20;99.90
17591;DHT22;8914;50.070;8.226;2024-01-10T04:44:31;-1.30;99.90
17591;DHT22;8914;50.070;8.226;2024-01-10T04:47:01;-1.20;99.90
17591;DHT22;8914;50.070;8.226;2024-01-10T04:49:31;-1.30;99.90
17591;DHT22;8914;50.070;8.226;2024-01-10T04:52:01;-1.20;99.90
17591;DHT22;8914;50.070;8.226;2024-01-10T04:54:30;-1.20;99.90
17591;DHT22;8914;50.070;8.226;2024-01-10T04:57:03;-1.20;99.90
17591;DHT22;8914;50.070;8.226;2024-01-10T04:59:34;-1.20;99.90
17591;DHT22;8914;50.070;8.226;2024-01-10T05:02:03;-1.10;99.90
17591;DHT22;8914;50.070;8.226;2024-01-10T05:04:33;-1.10;99.90
17591;DHT22;8914;50.070;8.226;2024-01-10T05:07:03;-1.10;99.90
17591;DHT22;8914;50.070;8.226;2024-01-10T05:09:33;-1.10;99.90
17591;DHT22;8914;50.070;8.226;2024-01-10T05:12:05;-1.00;99.90
17591;DHT22;8914;50.070;8.226;2024-01-10T05:14:35;-1.00;99.90
17591;DHT22;8914;50.070;8.226;2024-01-10T05:17:06;-1.00;99.90
17591;DHT22;8914;50.070;8.226;2024-01-10T05:19:36;-1.00;99.90
17591;DHT22;8914;50.070;8.226;2024-01-10T05:22:06;-1.00;99.90
17591;DHT22;8914;50.070;8.226;2024-01-10T05:24:36;-0.90;99.90
17591;DHT22;8914;50.070;8.226;2024-01-10T05:27:08;-0.90;99.90
17591;DHT22;8914;50.070;8.226;2024-01-10T05:29:38;-0.90;99.90
17591;DHT22;8914;50.070;8.226;2024-01-10T05:32:08;-0.90;99.90
17591;DHT22;8914;50.070;8.226;2024-01-10T05:34:37;-0.80;99.90
17591;DHT22;8914;50.070;8.226;2024-01-10T05:37:07;-0.80;99.90
17591;DHT22;8914;50.070;8.226;2024-01-10T05:39:36;-0.80;99.90
17591;DHT22;8914;50.070;8.226;2024-01-10T05:42:09;-0.70;99.90
17591;DHT22;8914;50.070;8.226;2024-01-10T05:44:39;-0.70;99.90
17591;DHT22;8914;50.070;8.226;2024-01-10T05:47:08;-0.70;99.90
17591;DHT22;8914;50.070;8.226;2024-01-10T05:49:38;-0.70;99.90
17591;DHT22;8914;50.070;8.226;2024-01-10T05:52:09;-0.60;99.90
17591;DHT22;8914;50.070;8.226;2024-01-10T05:54:39;-0.60;99.90
17591;DHT22;8914;50.070;8.226;2024-01-10T05:57:11;-0.60;99.90
17591;DHT22;8914;50.070;8.226;2024-01-10T05:59:41;-0.60;99.90
17591;DHT22;8914;50.070;8.226;2024-01-10T06:02:10;-0.60;99.90
17591;DHT22;8914;50.070;8.226;2024-01-10T06:04:43;-0.60;99.90
17591;DHT22;8914;50.070;8.226;2024-01-10T06:07:13;-0.60;99.90
17591;DHT22;8914;50.070;8.226;2024-01-10T06:09:42;-0.60;99.90
17591;DHT22;8914;50.070;8.226;2024-01-10T06:12:15;-0.60;99.90
17591;DHT22;8914;50.070;8.226;2024-01-10T06:14:45;-0.60;99.90
17591;DHT22;8914;50.070;8.226;2024-01-10T06:17:15;-0.60;99.90
17591;DHT22;8914;50.070;8.226;2024-01-10T06:19:45;-0.60;99.90
17591;DHT22;8914;50.070;8.226;2024-01-10T06:22:15;-0.60;99.90
17591;DHT22;8914;50.070;8.226;2024-01-10T06:24:55;-0.60;99.90
17591;DHT22;8914;50.070;8.226;2024-01-10T06:27:27;-0.60;99.90
17591;DHT22;8914;50.070;8.226;2024-01-10T06:29:57;-0.50;99.90
17591;DHT22;8914;50.070;8.226;2024-01-10T06:32:26;-0.60;99.90
17591;DHT22;8914;50.070;8.226;2024-01-10T06:34:56;-0.50;99.90
17591;DHT22;8914;50.070;8.226;2024-01-10T06:37:27;-0.50;99.90
17591;DHT22;8914;50.070;8.226;2024-01-10T06:40:00;-0.50;99.90
17591;DHT22;8914;50.070;8.226;2024-01-10T06:42:33;-0.50;99.90
17591;DHT22;8914;50.070;8.226;2024-01-10T06:45:05;-0.50;99.90
17591;DHT22;8914;50.070;8.226;2024-01-10T06:47:35;-0.40;99.90
17591;DHT22;8914;50.070;8.226;2024-01-10T06:50:06;-0.40;99.90
17591;DHT22;8914;50.070;8.226;2024-01-10T06:52:36;-0.40;99.90
17591;DHT22;8914;50.070;8.226;2024-01-10T06:55:06;-0.40;99.90
17591;DHT22;8914;50.070;8.226;2024-01-10T06:57:39;-0.40;99.90
17591;DHT22;8914;50.070;8.226;2024-01-10T07:00:09;-0.50;99.90
17591;DHT22;8914;50.070;8.226;2024-01-10T07:02:40;-0.40;99.90
17591;DHT22;8914;50.070;8.226;2024-01-10T07:05:09;-0.40;99.90
17591;DHT22;8914;50.070;8.226;2024-01-10T07:07:39;-0.40;99.90
17591;DHT22;8914;50.070;8.226;2024-01-10T07:10:09;-0.40;99.90
17591;DHT22;8914;50.070;8.226;2024-01-10T07:12:41;-0.40;99.90
17591;DHT22;8914;50.070;8.226;2024-01-10T07:15:11;-0.50;99.90
17591;DHT22;8914;50.070;8.226;2024-01-10T07:17:41;-0.50;99.90
17591;DHT22;8914;50.070;8.226;2024-01-10T07:20:11;-0.50;99.90
17591;DHT22;8914;50.070;8.226;2024-01-10T07:22:41;-0.50;99.90
17591;DHT22;8914;50.070;8.226;2024-01-10T07:25:11;-0.50;99.90
17591;DHT22;8914;50.070;8.226;2024-01-10T07:27:44;-0.50;99.90
17591;DHT22;8914;50.070;8.226;2024-01-10T07:30:14;-0.60;99.90
17591;DHT22;8914;50.070;8.226;2024-01-10T07:32:44;-0.60;99.90
17591;DHT22;8914;50.070;8.226;2024-01-10T07:35:15;-0.60;99.90
17591;DHT22;8914;50.070;8.226;2024-01-10T07:37:44;-0.60;99.90
17591;DHT22;8914;50.070;8.226;2024-01-10T07:40:14;-0.60;99.90
17591;DHT22;8914;50.070;8.226;2024-01-10T07:42:47;-0.60;99.90
17591;DHT22;8914;50.070;8.226;2024-01-10T07:45:16;-0.60;99.90
17591;DHT22;8914;50.070;8.226;2024-01-10T07:47:46;-0.50;99.90
17591;DHT22;8914;50.070;8.226;2024-01-10T07:50:16;-0.50;99.90
17591;DHT22;8914;50.070;8.226;2024-01-10T07:52:46;-0.50;99.90
17591;DHT22;8914;50.070;8.226;2024-01-10T07:55:16;-0.40;99.90
17591;DHT22;8914;50.070;8.226;2024-01-10T07:57:48;-0.40;99.90
17591;DHT22;8914;50.070;8.226;2024-01-10T08:00:18;-0.30;99.90
17591;DHT22;8914;50.070;8.226;2024-01-10T08:02:49;-0.40;99.90
17591;DHT22;8914;50.070;8.226;2024-01-10T08:05:19;-0.40;99.90
17591;DHT22;8914;50.070;8.226;2024-01-10T08:07:50;-0.40;99.90
17591;DHT22;8914;50.070;8.226;2024-01-10T08:10:20;-0.40;99.90
17591;DHT22;8914;50.070;8.226;2024-01-10T08:12:52;-0.40;99.90
17591;DHT22;8914;50.070;8.226;2024-01-10T08:15:23;-0.40;99.90
17591;DHT22;8914;50.070;8.226;2024-01-10T08:17:52;-0.30;99.90
17591;DHT22;8914;50.070;8.226;2024-01-10T08:20:22;-0.20;99.90
17591;DHT22;8914;50.070;8.226;2024-01-10T08:22:52;-0.20;99.90
17591;DHT22;8914;50.070;8.226;2024-01-10T08:25:22;-0.10;99.90
17591;DHT22;8914;50.070;8.226;2024-01-10T08:27:55;-0.20;99.90
17591;DHT22;8914;50.070;8.226;2024-01-10T08:30:24;-0.10;99.90
17591;DHT22;8914;50.070;8.226;2024-01-10T08:32:54;-0.10;99.90
17591;DHT22;8914;50.070;8.226;2024-01-10T08:35:24;-0.10;99.90
17591;DHT22;8914;50.070;8.226;2024-01-10T08:37:54;-0.10;99.90
17591;DHT22;8914;50.070;8.226;2024-01-10T08:40:24;0.00;99.90
17591;DHT22;8914;50.070;8.226;2024-01-10T08:42:57;0.00;99.90
17591;DHT22;8914;50.070;8.226;2024-01-10T08:45:27;0.20;99.90
17591;DHT22;8914;50.070;8.226;2024-01-10T08:47:56;0.10;99.90
17591;DHT22;8914;50.070;8.226;2024-01-10T08:50:26;0.10;99.90
17591;DHT22;8914;50.070;8.226;2024-01-10T08:52:56;0.10;99.90
17591;DHT22;8914;50.070;8.226;2024-01-10T08:55:26;1.20;99.90
17591;DHT22;8914;50.070;8.226;2024-01-10T08:57:59;0.10;99.90
17591;DHT22;8914;50.070;8.226;2024-01-10T09:00:29;-0.20;99.90
17591;DHT22;8914;50.070;8.226;2024-01-10T09:02:59;0.00;99.90
17591;DHT22;8914;50.070;8.226;2024-01-10T09:05:29;0.10;99.90
17591;DHT22;8914;50.070;8.226;2024-01-10T09:07:59;0.10;99.90
17591;DHT22;8914;50.070;8.226;2024-01-10T09:10:30;0.20;99.90
17591;DHT22;8914;50.070;8.226;2024-01-10T09:13:02;0.30;99.90
17591;DHT22;8914;50.070;8.226;2024-01-10T09:15:32;0.30;99.90
17591;DHT22;8914;50.070;8.226;2024-01-10T09:18:02;0.40;99.90
17591;DHT22;8914;50.070;8.226;2024-01-10T09:20:32;0.40;99.90
17591;DHT22;8914;50.070;8.226;2024-01-10T09:23:02;0.50;99.90
17591;DHT22;8914;50.070;8.226;2024-01-10T09:25:32;0.60;99.90
17591;DHT22;8914;50.070;8.226;2024-01-10T09:28:06;0.50;99.90
17591;DHT22;8914;50.070;8.226;2024-01-10T09:30:36;0.50;99.90
17591;DHT22;8914;50.070;8.226;2024-01-10T09:33:08;0.20;99.90
17591;DHT22;8914;50.070;8.226;2024-01-10T09:35:39;0.60;99.90
17591;DHT22;8914;50.070;8.226;2024-01-10T09:38:09;0.60;99.90
17591;DHT22;8914;50.070;8.226;2024-01-10T09:40:39;0.50;99.90
17591;DHT22;8914;50.070;8.226;2024-01-10T09:43:12;0.50;99.90
17591;DHT22;8914;50.070;8.226;2024-01-10T09:45:42;0.60;99.90
17591;DHT22;8914;50.070;8.226;2024-01-10T09:48:13;0.60;99.90
17591;DHT22;8914;50.070;8.226;2024-01-10T09:50:43;0.60;99.90
17591;DHT22;8914;50.070;8.226;2024-01-10T09:53:14;0.60;99.90
17591;DHT22;8914;50.070;8.226;2024-01-10T09:55:50;0.60;99.90
17591;DHT22;8914;50.070;8.226;2024-01-10T09:58:26;0.60;99.90
17591;DHT22;8914;50.070;8.226;2024-01-10T10:00:55;0.70;99.90
17591;DHT22;8914;50.070;8.226;2024-01-10T10:03:26;0.70;99.90
17591;DHT22;8914;50.070;8.226;2024-01-10T10:05:56;0.70;99.90
17591;DHT22;8914;50.070;8.226;2024-01-10T10:08:27;0.70;99.90
17591;DHT22;8914;50.070;8.226;2024-01-10T10:10:57;0.70;99.90
17591;DHT22;8914;50.070;8.226;2024-01-10T10:13:29;0.80;99.90
17591;DHT22;8914;50.070;8.226;2024-01-10T10:16:03;0.80;99.90
17591;DHT22;8914;50.070;8.226;2024-01-10T10:18:35;0.80;99.90
17591;DHT22;8914;50.070;8.226;2024-01-10T10:21:06;0.80;99.90
17591;DHT22;8914;50.070;8.226;2024-01-10T10:23:36;0.80;99.90
17591;DHT22;8914;50.070;8.226;2024-01-10T10:26:16;0.90;99.90
17591;DHT22;8914;50.070;8.226;2024-01-10T10:28:51;0.90;99.90
17591;DHT22;8914;50.070;8.226;2024-01-10T10:31:23;0.80;99.90
17591;DHT22;8914;50.070;8.226;2024-01-10T10:33:52;0.80;99.90
17591;DHT22;8914;50.070;8.226;2024-01-10T10:36:22;0.80;99.90
17591;DHT22;8914;50.070;8.226;2024-01-10T10:38:52;0.80;99.90
17591;DHT22;8914;50.070;8.226;2024-01-10T10:41:22;1.00;99.90
17591;DHT22;8914;50.070;8.226;2024-01-10T10:43:55;0.90;99.90
17591;DHT22;8914;50.070;8.226;2024-01-10T10:46:26;0.90;99.90
17591;DHT22;8914;50.070;8.226;2024-01-10T10:48:56;1.90;99.90
17591;DHT22;8914;50.070;8.226;2024-01-10T10:51:33;1.00;99.90
17591;DHT22;8914;50.070;8.226;2024-01-10T10:54:03;1.00;99.90
17591;DHT22;8914;50.070;8.226;2024-01-10T10:56:33;1.00;99.90
17591;DHT22;8914;50.070;8.226;2024-01-10T10:59:06;1.00;99.90
17591;DHT22;8914;50.070;8.226;2024-01-10T11:01:37;1.10;99.90
17591;DHT22;8914;50.070;8.226;2024-01-10T11:04:07;1.30;99.90
17591;DHT22;8914;50.070;8.226;2024-01-10T11:06:37;0.60;99.90
17591;DHT22;8914;50.070;8.226;2024-01-10T11:09:08;1.00;99.90
17591;DHT22;8914;50.070;8.226;2024-01-10T11:11:45;1.70;99.90
17591;DHT22;8914;50.070;8.226;2024-01-10T11:14:21;1.10;99.90
17591;DHT22;8914;50.070;8.226;2024-01-10T11:19:44;1.20;99.90
17591;DHT22;8914;50.070;8.226;2024-01-10T11:22:27;1.20;99.90
17591;DHT22;8914;50.070;8.226;2024-01-10T11:25:01;1.20;99.90
17591;DHT22;8914;50.070;8.226;2024-01-10T11:27:31;1.30;99.90
17591;DHT22;8914;50.070;8.226;2024-01-10T11:30:04;1.40;99.90
17591;DHT22;8914;50.070;8.226;2024-01-10T11:32:34;1.40;99.90
17591;DHT22;8914;50.070;8.226;2024-01-10T11:35:05;1.40;99.90
17591;DHT22;8914;50.070;8.226;2024-01-10T11:37:38;1.50;99.90
17591;DHT22;8914;50.070;8.226;2024-01-10T11:40:09;1.60;99.90
17591;DHT22;8914;50.070;8.226;2024-01-10T11:42:42;1.50;99.90
17591;DHT22;8914;50.070;8.226;2024-01-10T11:45:18;1.60;99.90
17591;DHT22;8914;50.070;8.226;2024-01-10T11:48:06;1.70;99.90
17591;DHT22;8914;50.070;8.226;2024-01-10T11:50:36;1.70;99.90
17591;DHT22;8914;50.070;8.226;2024-01-10T11:53:06;1.70;99.90
17591;DHT22;8914;50.070;8.226;2024-01-10T15:27:28;1.50;99.90
17591;DHT22;8914;50.070;8.226;2024-01-10T15:30:07;1.60;99.90
17591;DHT22;8914;50.070;8.226;2024-01-10T15:32:43;1.50;99.90
17591;DHT22;8914;50.070;8.226;2024-01-10T15:35:13;1.70;99.90
17591;DHT22;8914;50.070;8.226;2024-01-10T15:37:43;1.50;99.90
17591;DHT22;8914;50.070;8.226;2024-01-10T15:40:14;1.40;99.90
17591;DHT22;8914;50.070;8.226;2024-01-10T15:42:47;1.40;99.90
17591;DHT22;8914;50.070;8.226;2024-01-10T15:45:19;1.40;99.90
17591;DHT22;8914;50.070;8.226;2024-01-10T15:47:49;1.40;99.90
17591;DHT22;8914;50.070;8.226;2024-01-10T15:50:23;1.40;99.90
17591;DHT22;8914;50.070;8.226;2024-01-10T15:52:53;2.40;99.90
17591;DHT22;8914;50.070;8.226;2024-01-10T15:55:23;1.40;99.90
17591;DHT22;8914;50.070;8.226;2024-01-10T15:57:56;1.30;99.90
17591;DHT22;8914;50.070;8.226;2024-01-10T16:00:26;1.30;99.90
17591;DHT22;8914;50.070;8.226;2024-01-10T16:02:56;1.30;99.90
17591;DHT22;8914;50.070;8.226;2024-01-10T16:05:25;1.20;99.90
17591;DHT22;8914;50.070;8.226;2024-01-10T16:07:55;1.20;99.90
17591;DHT22;8914;50.070;8.226;2024-01-10T16:10:25;1.20;99.90
17591;DHT22;8914;50.070;8.226;2024-01-10T16:12:58;1.20;99.90
17591;DHT22;8914;50.070;8.226;2024-01-10T16:15:28;1.20;99.90
17591;DHT22;8914;50.070;8.226;2024-01-10T16:17:57;1.20;99.90
17591;DHT22;8914;50.070;8.226;2024-01-10T16:20:27;1.20;99.90
17591;DHT22;8914;50.070;8.226;2024-01-10T16:22:57;1.20;99.90
17591;DHT22;8914;50.070;8.226;2024-01-10T16:25:27;1.10;99.90
17591;DHT22;8914;50.070;8.226;2024-01-10T16:27:59;1.10;99.90
17591;DHT22;8914;50.070;8.226;2024-01-10T16:30:29;1.00;99.90
17591;DHT22;8914;50.070;8.226;2024-01-10T16:32:59;1.00;99.90
17591;DHT22;8914;50.070;8.226;2024-01-10T16:35:29;1.00;99.90
17591;DHT22;8914;50.070;8.226;2024-01-10T16:37:59;1.00;99.90
17591;DHT22;8914;50.070;8.226;2024-01-10T16:40:29;1.10;99.90
17591;DHT22;8914;50.070;8.226;2024-01-10T16:43:01;1.00;99.90
17591;DHT22;8914;50.070;8.226;2024-01-10T16:45:31;1.00;99.90
17591;DHT22;8914;50.070;8.226;2024-01-10T16:48:01;1.00;99.90
17591;DHT22;8914;50.070;8.226;2024-01-10T16:50:31;1.00;99.90
17591;DHT22;8914;50.070;8.226;2024-01-10T16:53:00;1.00;99.90
17591;DHT22;8914;50.070;8.226;2024-01-10T16:55:30;1.00;99.90
17591;DHT22;8914;50.070;8.226;2024-01-10T16:58:03;0.90;99.90
17591;DHT22;8914;50.070;8.226;2024-01-10T17:00:32;0.90;99.90
17591;DHT22;8914;50.070;8.226;2024-01-10T17:03:02;0.90;99.90
17591;DHT22;8914;50.070;8.226;2024-01-10T17:05:32;0.80;99.90
17591;DHT22;8914;50.070;8.226;2024-01-10T17:08:07;0.80;99.90
17591;DHT22;8914;50.070;8.226;2024-01-10T17:10:37;0.80;99.90
17591;DHT22;8914;50.070;8.226;2024-01-10T17:13:09;0.50;99.90
17591;DHT22;8914;50.070;8.226;2024-01-10T17:15:39;0.50;99.90
17591;DHT22;8914;50.070;8.226;2024-01-10T17:18:09;0.50;99.90
17591;DHT22;8914;50.070;8.226;2024-01-10T17:20:39;0.50;99.90
17591;DHT22;8914;50.070;8.226;2024-01-10T17:23:08;0.50;99.90
17591;DHT22;8914;50.070;8.226;2024-01-10T17:25:39;0.50;99.90
17591;DHT22;8914;50.070;8.226;2024-01-10T17:28:11;0.50;99.90
17591;DHT22;8914;50.070;8.226;2024-01-10T17:30:41;0.60;99.90
17591;DHT22;8914;50.070;8.226;2024-01-10T17:33:11;0.60;99.90
17591;DHT22;8914;50.070;8.226;2024-01-10T17:35:41;0.70;99.90
17591;DHT22;8914;50.070;8.226;2024-01-10T17:38:11;0.60;99.90
17591;DHT22;8914;50.070;8.226;2024-01-10T17:40:42;0.70;99.90
17591;DHT22;8914;50.070;8.226;2024-01-10T17:43:14;0.70;99.90
17591;DHT22;8914;50.070;8.226;2024-01-10T17:45:44;0.70;99.90
17591;DHT22;8914;50.070;8.226;2024-01-10T17:48:13;0.60;99.90
17591;DHT22;8914;50.070;8.226;2024-01-10T17:50:45;0.60;99.90
17591;DHT22;8914;50.070;8.226;2024-01-10T17:53:15;0.60;99.90
17591;DHT22;8914;50.070;8.226;2024-01-10T17:55:44;0.60;99.90
17591;DHT22;8914;50.070;8.226;2024-01-10T17:58:17;0.60;99.90
17591;DHT22;8914;50.070;8.226;2024-01-10T18:00:46;0.60;99.90
17591;DHT22;8914;50.070;8.226;2024-01-10T18:03:16;0.60;99.90
17591;DHT22;8914;50.070;8.226;2024-01-10T18:05:46;0.50;99.90
17591;DHT22;8914;50.070;8.226;2024-01-10T18:08:16;0.50;99.90
17591;DHT22;8914;50.070;8.226;2024-01-10T18:10:46;0.60;99.90
17591;DHT22;8914;50.070;8.226;2024-01-10T18:13:20;-0.70;99.90
17591;DHT22;8914;50.070;8.226;2024-01-10T18:15:50;0.50;99.90
17591;DHT22;8914;50.070;8.226;2024-01-10T18:18:20;0.50;99.90
17591;DHT22;8914;50.070;8.226;2024-01-10T18:20:50;0.50;99.90
17591;DHT22;8914;50.070;8.226;2024-01-10T18:23:19;0.50;99.90
17591;DHT22;8914;50.070;8.226;2024-01-10T18:25:49;0.40;99.90
17591;DHT22;8914;50.070;8.226;2024-01-10T18:28:21;0.40;99.90
17591;DHT22;8914;50.070;8.226;2024-01-10T18:30:51;0.40;99.90
17591;DHT22;8914;50.070;8.226;2024-01-10T18:33:22;0.40;99.90
17591;DHT22;8914;50.070;8.226;2024-01-10T18:35:52;0.30;99.90
17591;DHT22;8914;50.070;8.226;2024-01-10T18:38:22;0.30;99.90
17591;DHT22;8914;50.070;8.226;2024-01-10T18:40:52;0.20;99.90
17591;DHT22;8914;50.070;8.226;2024-01-10T18:43:24;0.20;99.90
17591;DHT22;8914;50.070;8.226;2024-01-10T18:45:54;0.10;99.90
17591;DHT22;8914;50.070;8.226;2024-01-10T18:48:24;0.30;99.90
17591;DHT22;8914;50.070;8.226;2024-01-10T18:50:54;0.10;99.90
17591;DHT22;8914;50.070;8.226;2024-01-10T18:53:24;0.10;99.90
17591;DHT22;8914;50.070;8.226;2024-01-10T18:55:54;0.10;99.90
17591;DHT22;8914;50.070;8.226;2024-01-10T18:58:27;0.10;99.90
17591;DHT22;8914;50.070;8.226;2024-01-10T19:00:56;0.10;99.90
17591;DHT22;8914;50.070;8.226;2024-01-10T19:03:26;0.10;99.90
17591;DHT22;8914;50.070;8.226;2024-01-10T19:05:56;0.00;99.90
17591;DHT22;8914;50.070;8.226;2024-01-10T19:08:27;0.10;99.90
17591;DHT22;8914;50.070;8.226;2024-01-10T19:10:57;0.00;99.90
17591;DHT22;8914;50.070;8.226;2024-01-10T19:13:30;0.00;99.90
17591;DHT22;8914;50.070;8.226;2024-01-10T19:16:05;0.00;99.90
17591;DHT22;8914;50.070;8.226;2024-01-10T19:18:36;-0.10;99.90
17591;DHT22;8914;50.070;8.226;2024-01-10T19:21:07;-0.10;99.90
17591;DHT22;8914;50.070;8.226;2024-01-10T19:23:39;0.10;99.90
17591;DHT22;8914;50.070;8.226;2024-01-10T19:26:19;-0.10;99.90
17591;DHT22;8914;50.070;8.226;2024-01-10T19:28:51;-0.10;99.90
17591;DHT22;8914;50.070;8.226;2024-01-10T19:31:21;-0.10;99.90
17591;DHT22;8914;50.070;8.226;2024-01-10T19:33:51;-0.10;99.90
17591;DHT22;8914;50.070;8.226;2024-01-10T19:36:21;-0.10;99.90
17591;DHT22;8914;50.070;8.226;2024-01-10T19:38:54;-0.10;99.90
17591;DHT22;8914;50.070;8.226;2024-01-10T19:41:24;-0.10;99.90
17591;DHT22;8914;50.070;8.226;2024-01-10T19:43:57;-0.20;99.90
17591;DHT22;8914;50.070;8.226;2024-01-10T19:46:27;-1.10;99.90
17591;DHT22;8914;50.070;8.226;2024-01-10T19:48:57;-0.30;99.90
17591;DHT22;8914;50.070;8.226;2024-01-10T19:51:27;-0.30;99.90